createdAt,value
2023-04-02T00:02:34.048Z,98186.63
2023-04-02T00:05:55.928Z,98192.13
2023-04-02T00:09:23.966Z,98189.91
2023-04-02T00:12:26.456Z,98184.75
2023-04-02T00:15:28.992Z,98186.75
2023-04-02T00:18:32.416Z,98178.91
2023-04-02T00:21:37.255Z,98183.34
2023-04-02T00:24:40.503Z,98177.03
2023-04-02T00:27:43.208Z,98183.16
2023-04-02T00:30:56.462Z,98186.28
2023-04-02T00:34:00.597Z,98191.34
2023-04-02T00:37:03.146Z,98203.72
2023-04-02T00:40:10.165Z,98203.84
2023-04-02T00:43:16.775Z,98201.03
2023-04-02T00:46:24.274Z,98199.66
2023-04-02T00:49:36.889Z,98201.09
2023-04-02T00:52:41.861Z,98196.81
2023-04-02T00:55:44.216Z,98200.47
2023-04-02T00:58:51.770Z,98202.72
2023-04-02T01:02:01.821Z,98197.44
2023-04-02T01:05:23.564Z,98201.87
2023-04-02T01:09:03.017Z,98199.88
2023-04-02T01:12:25.383Z,98198.44
2023-04-02T01:15:40.624Z,98200.88
2023-04-02T01:18:56.649Z,98209.41
2023-04-02T01:22:18.310Z,98207.19
2023-04-02T01:25:29.051Z,98214.50
2023-04-02T01:29:06.864Z,98214.50
2023-04-02T01:32:17.628Z,98211.25
2023-04-02T01:35:21.817Z,98215.50
2023-04-02T01:38:28.122Z,98211.44
2023-04-02T01:41:36.616Z,98218.50
2023-04-02T01:44:45.383Z,98218.75
2023-04-02T01:47:47.843Z,98226.03
2023-04-02T01:50:52.666Z,98233.16
2023-04-02T01:53:55.382Z,98224.03
2023-04-02T01:56:57.970Z,98223.22
2023-04-02T02:00:02.030Z,98222.81
2023-04-02T02:03:06.330Z,98221.78
2023-04-02T02:06:12.257Z,98230.13
2023-04-02T02:09:26.868Z,98224.66
2023-04-02T02:12:29.100Z,98232.97
2023-04-02T02:15:33.662Z,98229.53
2023-04-02T02:18:36.484Z,98232.31
2023-04-02T02:21:47.912Z,98233.53
2023-04-02T02:24:50.581Z,98231.81
2023-04-02T02:27:59.586Z,98225.28
2023-04-02T02:31:18.598Z,98232.22
2023-04-02T02:34:25.147Z,98231.34
2023-04-02T02:37:36.932Z,98238.22
2023-04-02T02:40:43.807Z,98234.75
2023-04-02T02:43:59.423Z,98236.94
2023-04-02T02:47:04.297Z,98233.88
2023-04-02T02:50:09.013Z,98230.34
2023-04-02T02:53:21.714Z,98228.31
2023-04-02T02:56:24.154Z,98231.38
2023-04-02T02:59:27.048Z,98227.66
2023-04-02T03:02:29.468Z,98231.13
2023-04-02T03:05:31.980Z,98222.81
2023-04-02T03:08:48.841Z,98224.06
2023-04-02T03:11:56.322Z,98233.19
2023-04-02T03:15:19.022Z,98224.44
2023-04-02T03:18:27.319Z,98225.44
2023-04-02T03:21:49.990Z,98225.25
2023-04-02T03:24:59.807Z,98229.66
2023-04-02T03:28:05.430Z,98228.59
2023-04-02T03:31:31.516Z,98228.44
2023-04-02T03:34:38.583Z,98240.25
2023-04-02T03:37:47.809Z,98236.03
2023-04-02T03:41:16.418Z,98236.62
2023-04-02T03:44:29.035Z,98242.91
2023-04-02T03:47:46.865Z,98248.31
2023-04-02T03:51:14.216Z,98250.81
2023-04-02T03:54:16.857Z,98250.22
2023-04-02T03:57:30.035Z,98249.41
2023-04-02T04:00:44.163Z,98252.66
2023-04-02T04:03:50.838Z,98248.09
2023-04-02T04:06:53.648Z,98253.03
2023-04-02T04:09:57.010Z,98259.34
2023-04-02T04:13:11.867Z,98258.34
2023-04-02T04:16:20.882Z,98265.88
2023-04-02T04:19:34.714Z,98268.91
2023-04-02T04:22:37.876Z,98267.25
2023-04-02T04:25:40.536Z,98269.91
2023-04-02T04:28:58.421Z,98268.03
2023-04-02T04:32:33.770Z,98273.72
2023-04-02T04:35:40.268Z,98274.56
2023-04-02T04:38:49.298Z,98275.94
2023-04-02T04:41:52.360Z,98278.81
2023-04-02T04:45:13.227Z,98279.03
2023-04-02T04:48:26.882Z,98282.28
2023-04-02T04:51:36.535Z,98279.44
2023-04-02T04:54:39.597Z,98282.47
2023-04-02T04:57:42.283Z,98280.28
2023-04-02T05:00:59.374Z,98285.94
2023-04-02T05:04:09.400Z,98288.19
2023-04-02T05:07:21.692Z,98283.28
2023-04-02T05:10:39.140Z,98284.00
2023-04-02T05:14:00.998Z,98286.44
2023-04-02T05:17:10.857Z,98297.00
2023-04-02T05:20:17.044Z,98287.25
2023-04-02T05:23:25.609Z,98299.50
2023-04-02T05:26:33.581Z,98295.28
2023-04-02T05:29:38.961Z,98303.63
2023-04-02T05:32:44.652Z,98293.13
2023-04-02T05:35:49.624Z,98303.13
2023-04-02T05:38:52.665Z,98309.41
2023-04-02T05:42:20.318Z,98310.69
2023-04-02T05:45:36.004Z,98321.75
2023-04-02T05:48:41.066Z,98325.34
2023-04-02T05:51:47.337Z,98322.09
2023-04-02T05:54:53.376Z,98319.22
2023-04-02T05:58:21.467Z,98326.50
2023-04-02T06:01:41.401Z,98327.28
2023-04-02T06:04:53.823Z,98339.47
2023-04-02T06:08:01.396Z,98344.38
2023-04-02T06:11:11.831Z,98336.88
2023-04-02T06:14:15.570Z,98341.34
2023-04-02T06:17:19.363Z,98345.84
2023-04-02T06:20:21.568Z,98353.25
2023-04-02T06:23:33.205Z,98352.31
2023-04-02T06:26:39.315Z,98355.84
2023-04-02T06:29:43.198Z,98361.53
2023-04-02T06:32:45.496Z,98358.97
2023-04-02T06:35:51.061Z,98356.94
2023-04-02T06:38:55.753Z,98362.31
2023-04-02T06:42:14.177Z,98359.50
2023-04-02T06:45:24.343Z,98367.41
2023-04-02T06:48:27.566Z,98371.44
2023-04-02T06:51:30.427Z,98363.63
2023-04-02T06:54:32.650Z,98370.53
2023-04-02T06:57:35.870Z,98374.88
2023-04-02T07:00:48.953Z,98375.63
2023-04-02T07:03:51.720Z,98378.41
2023-04-02T07:06:53.899Z,98382.03
2023-04-02T07:09:56.372Z,98377.59
2023-04-02T07:12:58.582Z,98373.22
2023-04-02T07:16:01.389Z,98379.78
2023-04-02T07:19:04.302Z,98381.34
2023-04-02T07:22:06.485Z,98381.47
2023-04-02T07:25:09.069Z,98375.84
2023-04-02T07:28:12.375Z,98375.41
2023-04-02T07:31:20.751Z,98372.75
2023-04-02T07:34:22.983Z,98378.47
2023-04-02T07:37:25.378Z,98387.19
2023-04-02T07:40:27.567Z,98388.75
2023-04-02T07:43:29.771Z,98403.72
2023-04-02T07:46:32.076Z,98402.44
2023-04-02T07:49:34.286Z,98406.03
2023-04-02T07:52:42.159Z,98405.75
2023-04-02T07:55:44.371Z,98404.72
2023-04-02T07:58:46.826Z,98411.12
2023-04-02T08:01:49.071Z,98410.56
2023-04-02T08:04:51.795Z,98413.41
2023-04-02T08:07:57.429Z,98416.72
2023-04-02T08:10:59.570Z,98421.94
2023-04-02T08:14:01.761Z,98421.34
2023-04-02T08:17:04.113Z,98428.59
2023-04-02T08:20:07.987Z,98427.62
2023-04-02T08:23:18.010Z,98434.03
2023-04-02T08:26:20.498Z,98431.78
2023-04-02T08:29:23.057Z,98434.25
2023-04-02T08:32:26.535Z,98434.75
2023-04-02T08:35:28.824Z,98443.16
2023-04-02T08:38:31.169Z,98435.12
2023-04-02T08:41:45.735Z,98444.91
2023-04-02T08:45:24.149Z,98448.13
2023-04-02T08:48:28.207Z,98439.44
2023-04-02T08:51:36.789Z,98442.56
2023-04-02T08:54:39.074Z,98452.13
2023-04-02T08:57:48.190Z,98448.22
2023-04-02T09:00:54.052Z,98442.75
2023-04-02T09:03:58.609Z,98444.28
2023-04-02T09:07:01.010Z,98440.66
2023-04-02T09:10:04.401Z,98454.44
2023-04-02T09:13:18.357Z,98453.91
2023-04-02T09:16:23.377Z,98454.56
2023-04-02T09:19:31.645Z,98453.47
2023-04-02T09:22:35.105Z,98455.53
2023-04-02T09:25:51.048Z,98456.03
2023-04-02T09:29:22.581Z,98459.59
2023-04-02T09:32:35.513Z,98462.47
2023-04-02T09:35:54.759Z,98451.78
2023-04-02T09:38:59.350Z,98450.94
2023-04-02T09:42:07.497Z,98455.28
2023-04-02T09:45:23.735Z,98458.69
2023-04-02T09:48:30.258Z,98461.94
2023-04-02T09:51:34.720Z,98461.94
2023-04-02T09:54:41.990Z,98465.44
2023-04-02T09:57:45.595Z,98468.87
2023-04-02T10:00:52.135Z,98466.81
2023-04-02T10:03:54.528Z,98467.94
2023-04-02T10:06:58.026Z,98474.78
2023-04-02T10:10:02.171Z,98486.94
2023-04-02T10:13:30.709Z,98467.88
2023-04-02T10:16:52.256Z,98465.50
2023-04-02T10:19:58.564Z,98470.53
2023-04-02T10:23:00.829Z,98467.06
2023-04-02T10:26:44.538Z,98472.31
2023-04-02T10:29:46.653Z,98463.88
2023-04-02T10:33:28.710Z,98461.78
2023-04-02T10:36:52.104Z,98474.91
2023-04-02T10:39:58.588Z,98474.50
2023-04-02T10:43:13.158Z,98469.94
2023-04-02T10:46:43.864Z,98470.19
2023-04-02T10:49:53.647Z,98460.19
2023-04-02T10:53:11.824Z,98462.91
2023-04-02T10:56:14.667Z,98457.22
2023-04-02T10:59:23.790Z,98465.22
2023-04-02T11:02:28.953Z,98455.44
2023-04-02T11:05:44.424Z,98469.94
2023-04-02T11:08:49.110Z,98461.75
2023-04-02T11:11:53.479Z,98460.94
2023-04-02T11:14:56.293Z,98453.72
2023-04-02T11:17:58.742Z,98459.94
2023-04-02T11:21:03.387Z,98467.25
2023-04-02T11:24:05.926Z,98462.16
2023-04-02T11:27:11.321Z,98464.28
2023-04-02T11:30:18.098Z,98456.50
2023-04-02T11:33:38.255Z,98464.50
2023-04-02T11:36:52.937Z,98458.25
2023-04-02T11:40:18.227Z,98461.06
2023-04-02T11:43:32.639Z,98453.69
2023-04-02T11:46:39.652Z,98459.31
2023-04-02T11:50:01.401Z,98462.47
2023-04-02T11:53:10.548Z,98464.13
2023-04-02T11:56:45.393Z,98461.31
2023-04-02T12:00:02.930Z,98453.44
2023-04-02T12:03:13.778Z,98457.72
2023-04-02T12:06:28.096Z,98444.53
2023-04-02T12:09:49.792Z,98449.97
2023-04-02T12:12:52.080Z,98445.94
2023-04-02T12:15:57.734Z,98441.06
2023-04-02T12:19:00.678Z,98431.22
2023-04-02T12:22:02.927Z,98427.75
2023-04-02T12:25:27.091Z,98420.50
2023-04-02T12:28:31.333Z,98429.63
2023-04-02T12:31:33.731Z,98428.25
2023-04-02T12:34:36.361Z,98432.31
2023-04-02T12:37:38.532Z,98433.72
2023-04-02T12:40:40.891Z,98424.44
2023-04-02T12:43:43.176Z,98426.84
2023-04-02T12:46:46.084Z,98424.38
2023-04-02T12:49:48.491Z,98423.03
2023-04-02T12:52:53.281Z,98425.19
2023-04-02T12:55:56.244Z,98417.63
2023-04-02T12:59:00.386Z,98421.94
2023-04-02T13:02:14.728Z,98422.28
2023-04-02T13:05:41.438Z,98415.66
2023-04-02T13:08:43.765Z,98423.94
2023-04-02T13:11:46.036Z,98426.78
2023-04-02T13:14:54.954Z,98425.63
2023-04-02T13:18:12.393Z,98434.81
2023-04-02T13:21:14.671Z,98430.78
2023-04-02T13:24:22.062Z,98438.37
2023-04-02T13:27:24.315Z,98429.03
2023-04-02T13:30:28.109Z,98419.88
2023-04-02T13:33:30.500Z,98426.62
2023-04-02T13:36:32.700Z,98417.81
2023-04-02T13:39:34.893Z,98429.34
2023-04-02T13:42:37.224Z,98435.78
2023-04-02T13:45:40.858Z,98433.75
2023-04-02T13:48:43.286Z,98437.87
2023-04-02T13:51:47.982Z,98426.94
2023-04-02T13:54:53.164Z,98431.63
2023-04-02T13:57:56.715Z,98432.34
2023-04-02T14:00:58.958Z,98433.63
2023-04-02T14:04:02.494Z,98435.44
2023-04-02T14:07:34.445Z,98423.84
2023-04-02T14:11:03.214Z,98430.66
2023-04-02T14:14:39.922Z,98431.84
2023-04-02T14:18:00.854Z,98437.19
2023-04-02T14:21:03.671Z,98438.03
2023-04-02T14:24:23.535Z,98444.16
2023-04-02T14:27:49.251Z,98441.31
2023-04-02T14:31:07.181Z,98471.59
2023-04-02T14:34:22.077Z,98485.59
2023-04-02T14:37:33.293Z,98512.31
2023-04-02T14:41:05.671Z,98499.94
2023-04-02T14:44:09.095Z,98508.59
2023-04-02T14:47:18.110Z,98511.88
2023-04-02T14:50:28.030Z,98520.00
2023-04-02T14:53:42.677Z,98524.31
2023-04-02T14:56:51.960Z,98525.50
2023-04-02T14:59:57.079Z,98526.84
2023-04-02T15:03:14.661Z,98526.53
2023-04-02T15:06:24.951Z,98518.56
2023-04-02T15:09:32.349Z,98530.47
2023-04-02T15:12:37.368Z,98530.25
2023-04-02T15:15:45.184Z,98536.47
2023-04-02T15:18:51.639Z,98540.44
2023-04-02T15:22:03.965Z,98537.25
2023-04-02T15:25:09.968Z,98540.84
2023-04-02T15:28:29.998Z,98545.47
2023-04-02T15:31:33.896Z,98538.81
2023-04-02T15:34:48.226Z,98541.75
2023-04-02T15:38:11.645Z,98554.22
2023-04-02T15:41:23.878Z,98559.34
2023-04-02T15:44:26.144Z,98546.16
2023-04-02T15:47:28.634Z,98542.22
2023-04-02T15:50:58.275Z,98550.16
2023-04-02T15:54:12.864Z,98548.19
2023-04-02T15:57:15.020Z,98546.22
2023-04-02T16:00:27.897Z,98555.94
2023-04-02T16:03:42.248Z,98557.91
2023-04-02T16:07:10.720Z,98555.47
2023-04-02T16:10:37.945Z,98567.87
2023-04-02T16:13:44.179Z,98580.72
2023-04-02T16:16:48.432Z,98590.03
2023-04-02T16:20:13.955Z,98588.88
2023-04-02T16:23:28.067Z,98590.84
2023-04-02T16:26:39.817Z,98589.88
2023-04-02T16:29:55.476Z,98587.84
2023-04-02T16:33:06.979Z,98586.91
2023-04-02T16:36:28.390Z,98580.66
2023-04-02T16:39:39.226Z,98573.81
2023-04-02T16:43:07.342Z,98572.31
2023-04-02T16:46:39.654Z,98587.44
2023-04-02T16:49:58.581Z,98586.25
2023-04-02T16:53:23.929Z,98589.38
2023-04-02T16:56:35.289Z,98591.91
2023-04-02T16:59:51.991Z,98592.03
2023-04-02T17:03:32.031Z,98593.50
2023-04-02T17:06:48.800Z,98601.47
2023-04-02T17:09:53.398Z,98602.06
2023-04-02T17:13:08.101Z,98613.16
2023-04-02T17:16:20.864Z,98615.53
2023-04-02T17:19:26.161Z,98620.72
2023-04-02T17:22:30.647Z,98630.44
2023-04-02T17:25:37.477Z,98627.53
2023-04-02T17:28:39.961Z,98634.69
2023-04-02T17:31:43.639Z,98637.13
2023-04-02T17:34:46.175Z,98634.47
2023-04-02T17:38:13.989Z,98635.88
2023-04-02T17:42:06.837Z,98638.03
2023-04-02T17:45:20.442Z,98648.38
2023-04-02T17:48:33.359Z,98666.78
2023-04-02T17:51:52.168Z,98660.91
2023-04-02T17:55:17.397Z,98662.16
2023-04-02T17:58:47.963Z,98668.97
2023-04-02T18:01:56.564Z,98676.19
2023-04-02T18:05:12.729Z,98675.16
2023-04-02T18:08:34.553Z,98685.03
2023-04-02T18:11:55.801Z,98687.09
2023-04-02T18:15:10.397Z,98695.81
2023-04-02T18:18:37.008Z,98703.41
2023-04-02T18:21:48.647Z,98713.66
2023-04-02T18:25:09.931Z,98716.94
2023-04-02T18:28:57.090Z,98727.63
2023-04-02T18:32:27.262Z,98733.97
2023-04-02T18:35:57.798Z,98742.22
2023-04-02T18:39:10.421Z,98754.09
2023-04-02T18:42:50.603Z,98761.88
2023-04-02T18:45:59.110Z,98758.69
2023-04-02T18:49:06.228Z,98761.38
2023-04-02T18:52:15.344Z,98764.03
2023-04-02T18:55:21.136Z,98769.78
2023-04-02T18:58:42.737Z,98770.94
2023-04-02T19:01:49.552Z,98771.78
2023-04-02T19:05:01.545Z,98773.87
2023-04-02T19:08:10.921Z,98787.22
2023-04-02T19:11:17.020Z,98782.13
2023-04-02T19:14:21.015Z,98794.22
2023-04-02T19:17:31.594Z,98800.72
2023-04-02T19:20:50.413Z,98803.16
2023-04-02T19:24:07.064Z,98808.91
2023-04-02T19:27:32.668Z,98813.81
2023-04-02T19:31:12.670Z,98814.22
2023-04-02T19:34:27.293Z,98821.13
2023-04-02T19:37:39.774Z,98822.16
2023-04-02T19:41:00.578Z,98820.34
2023-04-02T19:44:03.144Z,98825.50
2023-04-02T19:47:05.684Z,98829.38
2023-04-02T19:50:08.707Z,98835.91
2023-04-02T19:53:11.557Z,98847.75
2023-04-02T19:56:14.103Z,98842.03
2023-04-02T19:59:18.581Z,98845.72
2023-04-02T20:02:21.527Z,98848.78
2023-04-02T20:05:23.729Z,98849.78
2023-04-02T20:08:26.904Z,98854.28
2023-04-02T20:11:29.621Z,98863.66
2023-04-02T20:14:31.814Z,98877.56
2023-04-02T20:17:34.273Z,98880.19
2023-04-02T20:20:38.047Z,98884.72
2023-04-02T20:23:41.092Z,98891.44
2023-04-02T20:26:43.572Z,98891.44
2023-04-02T20:29:46.644Z,98895.94
2023-04-02T20:32:49.316Z,98898.97
2023-04-02T20:35:52.235Z,98909.38
2023-04-02T20:38:54.607Z,98912.63
2023-04-02T20:42:01.147Z,98916.28
2023-04-02T20:45:06.158Z,98920.34
2023-04-02T20:48:08.362Z,98929.31
2023-04-02T20:51:14.089Z,98929.50
2023-04-02T20:54:31.645Z,98932.97
2023-04-02T20:57:34.076Z,98937.00
2023-04-02T21:00:36.605Z,98939.69
2023-04-02T21:03:40.054Z,98944.94
2023-04-02T21:06:42.419Z,98943.50
2023-04-02T21:09:44.620Z,98949.91
2023-04-02T21:12:46.867Z,98952.97
2023-04-02T21:15:49.144Z,98960.50
2023-04-02T21:18:52.990Z,98959.16
2023-04-02T21:21:55.456Z,98966.69
2023-04-02T21:24:57.633Z,98964.41
2023-04-02T21:27:59.828Z,98975.13
2023-04-02T21:31:11.286Z,98985.53
2023-04-02T21:34:14.615Z,98982.22
2023-04-02T21:37:16.787Z,98988.25
2023-04-02T21:40:19.139Z,98990.56
2023-04-02T21:43:21.316Z,98987.47
2023-04-02T21:46:26.092Z,98995.72
2023-04-02T21:49:29.744Z,98996.59
2023-04-02T21:52:32.436Z,98997.16
2023-04-02T21:55:34.587Z,98999.88
2023-04-02T21:58:36.894Z,99003.25
2023-04-02T22:01:42.401Z,99007.91
2023-04-02T22:04:45.192Z,99012.38
2023-04-02T22:07:47.484Z,99013.38
2023-04-02T22:10:49.647Z,99026.41
2023-04-02T22:13:52.057Z,99019.66
2023-04-02T22:16:54.741Z,99024.44
2023-04-02T22:19:56.996Z,99024.06
2023-04-02T22:22:59.192Z,99027.28
2023-04-02T22:26:02.276Z,99032.69
2023-04-02T22:29:04.905Z,99027.72
2023-04-02T22:32:07.090Z,99035.00
2023-04-02T22:35:09.531Z,99036.47
2023-04-02T22:38:11.686Z,99034.72
2023-04-02T22:41:19.284Z,99032.69
2023-04-02T22:44:21.669Z,99041.34
2023-04-02T22:47:23.936Z,99041.44
2023-04-02T22:50:26.373Z,99047.47
2023-04-02T22:53:28.761Z,99045.47
2023-04-02T22:56:35.361Z,99047.19
2023-04-02T22:59:37.607Z,99052.81
2023-04-02T23:02:40.472Z,99050.84
2023-04-02T23:05:42.964Z,99059.78
2023-04-02T23:08:46.060Z,99053.91
2023-04-02T23:11:48.290Z,99051.72
2023-04-02T23:14:50.939Z,99047.78
2023-04-02T23:17:53.161Z,99057.25
2023-04-02T23:20:55.697Z,99055.97
2023-04-02T23:23:58.406Z,99064.72
2023-04-02T23:27:00.636Z,99065.81
2023-04-02T23:30:02.958Z,99067.28
2023-04-02T23:33:05.214Z,99070.03
2023-04-02T23:36:14.359Z,99069.13
2023-04-02T23:39:16.999Z,99068.31
2023-04-02T23:42:19.178Z,99072.75
2023-04-02T23:45:21.360Z,99077.03
2023-04-02T23:48:23.758Z,99073.59
2023-04-02T23:51:26.692Z,99075.47
2023-04-02T23:54:28.877Z,99070.03
2023-04-02T23:57:31.478Z,99077.41
